sensor_id;sensor_type;location;lat;lon;timestamp;P1;durP1;ratioP1;P2;durP2;ratioP2
801;SDS011;383;48.766;9.270;2023-05-08T00:01:54;27.20;;;14.50;;
801;SDS011;383;48.766;9.270;2023-05-08T00:04:20;21.80;;;13.53;;
801;SDS011;383;48.766;9.270;2023-05-08T00:06:47;22.93;;;12.33;;
801;SDS011;383;48.766;9.270;2023-05-08T00:09:16;22.73;;;14.00;;
801;SDS011;383;48.766;9.270;2023-05-08T00:11:43;19.00;;;12.10;;
801;SDS011;383;48.766;9.270;2023-05-08T00:14:10;25.13;;;13.80;;
801;SDS011;383;48.766;9.270;2023-05-08T00:16:37;23.47;;;14.17;;
801;SDS011;383;48.766;9.270;2023-05-08T00:19:03;26.93;;;12.77;;
801;SDS011;383;48.766;9.270;2023-05-08T00:21:30;19.20;;;12.07;;
801;SDS011;383;48.766;9.270;2023-05-08T00:23:57;24.37;;;13.83;;
801;SDS011;383;48.766;9.270;2023-05-08T00:26:25;27.53;;;12.43;;
801;SDS011;383;48.766;9.270;2023-05-08T00:28:51;25.70;;;12.37;;
801;SDS011;383;48.766;9.270;2023-05-08T00:31:18;22.03;;;12.47;;
801;SDS011;383;48.766;9.270;2023-05-08T00:33:45;20.33;;;12.10;;
801;SDS011;383;48.766;9.270;2023-05-08T00:36:11;26.37;;;14.17;;
801;SDS011;383;48.766;9.270;2023-05-08T00:38:39;27.07;;;13.63;;
801;SDS011;383;48.766;9.270;2023-05-08T00:41:06;26.00;;;14.10;;
801;SDS011;383;48.766;9.270;2023-05-08T00:43:34;25.30;;;15.33;;
801;SDS011;383;48.766;9.270;2023-05-08T00:46:01;23.33;;;14.17;;
801;SDS011;383;48.766;9.270;2023-05-08T00:48:29;28.80;;;13.10;;
801;SDS011;383;48.766;9.270;2023-05-08T00:50:58;26.83;;;14.03;;
801;SDS011;383;48.766;9.270;2023-05-08T00:53:27;25.30;;;14.50;;
801;SDS011;383;48.766;9.270;2023-05-08T00:55:58;24.87;;;13.30;;
801;SDS011;383;48.766;9.270;2023-05-08T00:58:25;23.47;;;12.87;;
801;SDS011;383;48.766;9.270;2023-05-08T01:00:54;20.07;;;13.57;;
801;SDS011;383;48.766;9.270;2023-05-08T01:03:22;33.67;;;13.97;;
801;SDS011;383;48.766;9.270;2023-05-08T01:05:49;25.30;;;14.97;;
801;SDS011;383;48.766;9.270;2023-05-08T01:08:16;23.17;;;14.07;;
801;SDS011;383;48.766;9.270;2023-05-08T01:10:44;27.73;;;13.73;;
801;SDS011;383;48.766;9.270;2023-05-08T01:13:17;29.73;;;16.07;;
801;SDS011;383;48.766;9.270;2023-05-08T01:15:56;24.77;;;14.57;;
801;SDS011;383;48.766;9.270;2023-05-08T01:18:32;24.00;;;14.77;;
801;SDS011;383;48.766;9.270;2023-05-08T01:21:05;25.57;;;15.23;;
801;SDS011;383;48.766;9.270;2023-05-08T01:23:44;26.20;;;14.30;;
801;SDS011;383;48.766;9.270;2023-05-08T01:26:57;24.03;;;13.47;;
801;SDS011;383;48.766;9.270;2023-05-08T01:29:46;25.90;;;15.13;;
801;SDS011;383;48.766;9.270;2023-05-08T01:32:39;26.67;;;14.77;;
801;SDS011;383;48.766;9.270;2023-05-08T01:35:09;27.07;;;14.33;;
801;SDS011;383;48.766;9.270;2023-05-08T01:37:44;24.43;;;14.17;;
801;SDS011;383;48.766;9.270;2023-05-08T01:40:18;31.80;;;17.57;;
801;SDS011;383;48.766;9.270;2023-05-08T01:43:06;22.60;;;15.10;;
801;SDS011;383;48.766;9.270;2023-05-08T01:45:39;32.53;;;15.87;;
801;SDS011;383;48.766;9.270;2023-05-08T01:48:14;25.80;;;15.23;;
801;SDS011;383;48.766;9.270;2023-05-08T01:50:44;31.13;;;15.40;;
801;SDS011;383;48.766;9.270;2023-05-08T01:53:15;30.53;;;14.90;;
801;SDS011;383;48.766;9.270;2023-05-08T01:55:46;28.20;;;15.43;;
801;SDS011;383;48.766;9.270;2023-05-08T01:58:15;39.90;;;16.10;;
801;SDS011;383;48.766;9.270;2023-05-08T02:00:42;31.77;;;17.20;;
801;SDS011;383;48.766;9.270;2023-05-08T02:03:22;32.33;;;15.27;;
801;SDS011;383;48.766;9.270;2023-05-08T02:06:06;27.40;;;15.60;;
801;SDS011;383;48.766;9.270;2023-05-08T02:08:35;25.43;;;13.83;;
801;SDS011;383;48.766;9.270;2023-05-08T02:11:02;24.57;;;14.97;;
801;SDS011;383;48.766;9.270;2023-05-08T02:13:30;30.57;;;13.20;;
801;SDS011;383;48.766;9.270;2023-05-08T02:15:58;24.93;;;14.80;;
801;SDS011;383;48.766;9.270;2023-05-08T02:18:28;27.30;;;14.73;;
801;SDS011;383;48.766;9.270;2023-05-08T02:20:57;25.83;;;13.53;;
801;SDS011;383;48.766;9.270;2023-05-08T02:23:25;29.40;;;14.80;;
801;SDS011;383;48.766;9.270;2023-05-08T02:25:53;24.50;;;13.67;;
801;SDS011;383;48.766;9.270;2023-05-08T02:28:20;27.87;;;13.47;;
801;SDS011;383;48.766;9.270;2023-05-08T02:30:48;26.50;;;14.50;;
801;SDS011;383;48.766;9.270;2023-05-08T02:33:17;21.73;;;13.63;;
801;SDS011;383;48.766;9.270;2023-05-08T02:35:46;20.73;;;12.10;;
801;SDS011;383;48.766;9.270;2023-05-08T02:38:15;20.80;;;13.00;;
801;SDS011;383;48.766;9.270;2023-05-08T02:40:45;20.27;;;12.50;;
801;SDS011;383;48.766;9.270;2023-05-08T02:43:14;23.50;;;11.87;;
801;SDS011;383;48.766;9.270;2023-05-08T02:45:42;26.50;;;11.90;;
801;SDS011;383;48.766;9.270;2023-05-08T02:48:14;20.80;;;11.60;;
801;SDS011;383;48.766;9.270;2023-05-08T02:50:50;21.80;;;11.13;;
801;SDS011;383;48.766;9.270;2023-05-08T02:53:24;17.97;;;10.67;;
801;SDS011;383;48.766;9.270;2023-05-08T02:55:58;20.33;;;11.50;;
801;SDS011;383;48.766;9.270;2023-05-08T02:58:30;24.10;;;11.20;;
801;SDS011;383;48.766;9.270;2023-05-08T03:01:03;16.50;;;11.03;;
801;SDS011;383;48.766;9.270;2023-05-08T03:03:35;17.33;;;11.33;;
801;SDS011;383;48.766;9.270;2023-05-08T03:06:07;19.50;;;11.63;;
801;SDS011;383;48.766;9.270;2023-05-08T03:08:38;19.00;;;11.67;;
801;SDS011;383;48.766;9.270;2023-05-08T03:11:07;19.87;;;11.30;;
801;SDS011;383;48.766;9.270;2023-05-08T03:13:37;19.37;;;11.20;;
801;SDS011;383;48.766;9.270;2023-05-08T03:16:09;21.70;;;11.53;;
801;SDS011;383;48.766;9.270;2023-05-08T03:18:42;23.73;;;11.80;;
801;SDS011;383;48.766;9.270;2023-05-08T03:21:15;17.87;;;11.30;;
801;SDS011;383;48.766;9.270;2023-05-08T03:23:44;20.30;;;12.37;;
801;SDS011;383;48.766;9.270;2023-05-08T03:26:13;23.10;;;11.63;;
801;SDS011;383;48.766;9.270;2023-05-08T03:28:43;18.33;;;11.50;;
801;SDS011;383;48.766;9.270;2023-05-08T03:31:12;21.57;;;12.10;;
801;SDS011;383;48.766;9.270;2023-05-08T03:33:43;18.60;;;10.93;;
801;SDS011;383;48.766;9.270;2023-05-08T03:36:10;21.50;;;10.47;;
801;SDS011;383;48.766;9.270;2023-05-08T03:38:38;22.33;;;11.83;;
801;SDS011;383;48.766;9.270;2023-05-08T03:41:05;21.60;;;12.73;;
801;SDS011;383;48.766;9.270;2023-05-08T03:43:32;16.83;;;10.90;;
801;SDS011;383;48.766;9.270;2023-05-08T03:46:01;26.07;;;13.17;;
801;SDS011;383;48.766;9.270;2023-05-08T03:48:29;20.03;;;12.57;;
801;SDS011;383;48.766;9.270;2023-05-08T03:50:57;20.00;;;12.03;;
801;SDS011;383;48.766;9.270;2023-05-08T03:53:27;29.60;;;12.87;;
801;SDS011;383;48.766;9.270;2023-05-08T03:55:56;23.90;;;11.53;;
801;SDS011;383;48.766;9.270;2023-05-08T03:58:25;20.13;;;11.87;;
801;SDS011;383;48.766;9.270;2023-05-08T04:00:58;21.30;;;12.40;;
801;SDS011;383;48.766;9.270;2023-05-08T04:03:31;20.03;;;12.00;;
801;SDS011;383;48.766;9.270;2023-05-08T04:06:09;22.60;;;12.03;;
801;SDS011;383;48.766;9.270;2023-05-08T04:08:40;21.10;;;11.93;;
801;SDS011;383;48.766;9.270;2023-05-08T04:11:16;18.63;;;12.13;;
801;SDS011;383;48.766;9.270;2023-05-08T04:13:59;18.53;;;11.30;;
801;SDS011;383;48.766;9.270;2023-05-08T04:16:29;19.40;;;10.93;;
801;SDS011;383;48.766;9.270;2023-05-08T04:19:06;16.80;;;10.90;;
801;SDS011;383;48.766;9.270;2023-05-08T04:21:35;18.90;;;10.73;;
801;SDS011;383;48.766;9.270;2023-05-08T04:24:07;20.03;;;10.47;;
801;SDS011;383;48.766;9.270;2023-05-08T04:26:38;21.60;;;12.80;;
801;SDS011;383;48.766;9.270;2023-05-08T04:29:06;23.33;;;14.10;;
801;SDS011;383;48.766;9.270;2023-05-08T04:31:33;25.83;;;13.33;;
801;SDS011;383;48.766;9.270;2023-05-08T04:34:02;20.47;;;11.73;;
801;SDS011;383;48.766;9.270;2023-05-08T04:36:29;21.00;;;11.90;;
801;SDS011;383;48.766;9.270;2023-05-08T04:38:57;21.20;;;12.30;;
801;SDS011;383;48.766;9.270;2023-05-08T04:41:24;17.20;;;11.03;;
801;SDS011;383;48.766;9.270;2023-05-08T04:43:52;19.70;;;12.30;;
801;SDS011;383;48.766;9.270;2023-05-08T04:46:19;16.73;;;10.93;;
801;SDS011;383;48.766;9.270;2023-05-08T04:48:46;14.37;;;10.00;;
801;SDS011;383;48.766;9.270;2023-05-08T04:51:13;15.00;;;9.80;;
801;SDS011;383;48.766;9.270;2023-05-08T04:53:39;17.10;;;10.57;;
801;SDS011;383;48.766;9.270;2023-05-08T04:56:06;17.23;;;10.07;;
801;SDS011;383;48.766;9.270;2023-05-08T04:58:33;11.93;;;8.23;;
801;SDS011;383;48.766;9.270;2023-05-08T05:01:02;14.20;;;9.20;;
801;SDS011;383;48.766;9.270;2023-05-08T05:03:29;17.33;;;9.63;;
801;SDS011;383;48.766;9.270;2023-05-08T05:05:56;12.77;;;9.00;;
801;SDS011;383;48.766;9.270;2023-05-08T05:08:23;15.80;;;9.93;;
801;SDS011;383;48.766;9.270;2023-05-08T05:10:50;16.07;;;10.20;;
801;SDS011;383;48.766;9.270;2023-05-08T05:13:17;12.77;;;9.10;;
801;SDS011;383;48.766;9.270;2023-05-08T05:15:44;14.20;;;9.30;;
801;SDS011;383;48.766;9.270;2023-05-08T05:18:12;13.60;;;9.13;;
801;SDS011;383;48.766;9.270;2023-05-08T05:20:39;20.03;;;9.90;;
801;SDS011;383;48.766;9.270;2023-05-08T05:23:06;13.50;;;9.00;;
801;SDS011;383;48.766;9.270;2023-05-08T05:25:33;13.00;;;8.77;;
801;SDS011;383;48.766;9.270;2023-05-08T05:28:00;13.60;;;9.47;;
801;SDS011;383;48.766;9.270;2023-05-08T05:30:27;15.27;;;10.03;;
801;SDS011;383;48.766;9.270;2023-05-08T05:32:54;13.37;;;8.70;;
801;SDS011;383;48.766;9.270;2023-05-08T05:35:22;15.80;;;9.10;;
801;SDS011;383;48.766;9.270;2023-05-08T05:37:49;13.30;;;9.10;;
801;SDS011;383;48.766;9.270;2023-05-08T05:40:15;18.53;;;10.73;;
801;SDS011;383;48.766;9.270;2023-05-08T05:42:46;16.47;;;9.70;;
801;SDS011;383;48.766;9.270;2023-05-08T05:45:14;16.63;;;10.37;;
801;SDS011;383;48.766;9.270;2023-05-08T05:47:43;13.43;;;9.83;;
801;SDS011;383;48.766;9.270;2023-05-08T05:50:10;14.23;;;9.63;;
801;SDS011;383;48.766;9.270;2023-05-08T05:52:38;18.77;;;9.77;;
801;SDS011;383;48.766;9.270;2023-05-08T05:55:05;15.20;;;10.10;;
801;SDS011;383;48.766;9.270;2023-05-08T05:57:32;16.30;;;9.93;;
801;SDS011;383;48.766;9.270;2023-05-08T05:59:59;14.00;;;10.47;;
801;SDS011;383;48.766;9.270;2023-05-08T06:02:26;12.50;;;9.30;;
801;SDS011;383;48.766;9.270;2023-05-08T06:04:52;14.70;;;9.63;;
801;SDS011;383;48.766;9.270;2023-05-08T06:07:19;18.23;;;11.07;;
801;SDS011;383;48.766;9.270;2023-05-08T06:09:47;16.90;;;11.30;;
801;SDS011;383;48.766;9.270;2023-05-08T06:12:15;15.80;;;10.00;;
801;SDS011;383;48.766;9.270;2023-05-08T06:14:42;27.70;;;10.90;;
801;SDS011;383;48.766;9.270;2023-05-08T06:17:09;15.67;;;9.27;;
801;SDS011;383;48.766;9.270;2023-05-08T06:19:36;15.27;;;9.73;;
801;SDS011;383;48.766;9.270;2023-05-08T06:22:03;17.93;;;9.43;;
801;SDS011;383;48.766;9.270;2023-05-08T06:24:30;15.23;;;10.30;;
801;SDS011;383;48.766;9.270;2023-05-08T06:26:58;15.33;;;9.03;;
801;SDS011;383;48.766;9.270;2023-05-08T06:29:25;17.50;;;10.83;;
801;SDS011;383;48.766;9.270;2023-05-08T06:31:52;13.10;;;9.10;;
801;SDS011;383;48.766;9.270;2023-05-08T06:34:19;17.63;;;10.17;;
801;SDS011;383;48.766;9.270;2023-05-08T06:36:46;15.50;;;9.40;;
801;SDS011;383;48.766;9.270;2023-05-08T06:39:12;16.27;;;10.17;;
801;SDS011;383;48.766;9.270;2023-05-08T06:41:39;15.80;;;9.80;;
801;SDS011;383;48.766;9.270;2023-05-08T06:44:07;16.37;;;10.60;;
801;SDS011;383;48.766;9.270;2023-05-08T06:46:34;18.50;;;11.63;;
801;SDS011;383;48.766;9.270;2023-05-08T06:49:01;24.27;;;14.13;;
801;SDS011;383;48.766;9.270;2023-05-08T06:51:28;19.03;;;12.33;;
801;SDS011;383;48.766;9.270;2023-05-08T06:53:55;22.40;;;14.30;;
801;SDS011;383;48.766;9.270;2023-05-08T06:56:22;23.00;;;13.73;;
801;SDS011;383;48.766;9.270;2023-05-08T06:58:48;23.13;;;14.23;;
801;SDS011;383;48.766;9.270;2023-05-08T07:01:16;23.43;;;13.40;;
801;SDS011;383;48.766;9.270;2023-05-08T07:03:43;21.00;;;12.77;;
801;SDS011;383;48.766;9.270;2023-05-08T07:06:10;21.63;;;13.10;;
801;SDS011;383;48.766;9.270;2023-05-08T07:08:37;17.10;;;12.10;;
801;SDS011;383;48.766;9.270;2023-05-08T07:11:03;17.43;;;11.27;;
801;SDS011;383;48.766;9.270;2023-05-08T07:13:30;21.10;;;12.57;;
801;SDS011;383;48.766;9.270;2023-05-08T07:15:57;19.90;;;12.07;;
801;SDS011;383;48.766;9.270;2023-05-08T07:18:25;16.77;;;11.43;;
801;SDS011;383;48.766;9.270;2023-05-08T07:20:52;20.07;;;11.80;;
801;SDS011;383;48.766;9.270;2023-05-08T07:23:18;15.27;;;10.80;;
801;SDS011;383;48.766;9.270;2023-05-08T07:25:45;20.50;;;12.60;;
801;SDS011;383;48.766;9.270;2023-05-08T07:28:12;13.77;;;10.50;;
801;SDS011;383;48.766;9.270;2023-05-08T07:30:39;19.73;;;10.60;;
801;SDS011;383;48.766;9.270;2023-05-08T07:33:05;15.67;;;10.93;;
801;SDS011;383;48.766;9.270;2023-05-08T07:35:33;23.87;;;17.20;;
801;SDS011;383;48.766;9.270;2023-05-08T07:38:14;16.30;;;12.27;;
801;SDS011;383;48.766;9.270;2023-05-08T07:48:10;24.90;;;15.07;;
801;SDS011;383;48.766;9.270;2023-05-08T07:50:38;45.97;;;25.27;;
801;SDS011;383;48.766;9.270;2023-05-08T07:53:05;45.00;;;24.97;;
801;SDS011;383;48.766;9.270;2023-05-08T07:55:32;33.53;;;21.90;;
801;SDS011;383;48.766;9.270;2023-05-08T07:57:58;26.23;;;17.10;;
801;SDS011;383;48.766;9.270;2023-05-08T08:00:25;18.40;;;13.67;;
801;SDS011;383;48.766;9.270;2023-05-08T08:02:53;16.70;;;12.37;;
801;SDS011;383;48.766;9.270;2023-05-08T08:05:20;21.93;;;13.83;;
801;SDS011;383;48.766;9.270;2023-05-08T08:07:49;16.30;;;12.60;;
801;SDS011;383;48.766;9.270;2023-05-08T08:10:16;14.00;;;9.00;;
801;SDS011;383;48.766;9.270;2023-05-08T08:12:43;14.27;;;8.00;;
801;SDS011;383;48.766;9.270;2023-05-08T08:15:09;21.43;;;14.97;;
801;SDS011;383;48.766;9.270;2023-05-08T08:17:36;19.33;;;12.43;;
801;SDS011;383;48.766;9.270;2023-05-08T08:20:03;13.53;;;7.73;;
801;SDS011;383;48.766;9.270;2023-05-08T08:22:31;9.07;;;6.50;;
801;SDS011;383;48.766;9.270;2023-05-08T08:24:59;12.23;;;7.30;;
801;SDS011;383;48.766;9.270;2023-05-08T08:27:25;12.83;;;7.07;;
801;SDS011;383;48.766;9.270;2023-05-08T08:29:52;15.40;;;8.07;;
801;SDS011;383;48.766;9.270;2023-05-08T08:32:19;17.83;;;10.00;;
801;SDS011;383;48.766;9.270;2023-05-08T08:34:45;13.77;;;8.07;;
801;SDS011;383;48.766;9.270;2023-05-08T08:37:12;14.33;;;9.30;;
801;SDS011;383;48.766;9.270;2023-05-08T08:39:39;15.77;;;9.77;;
801;SDS011;383;48.766;9.270;2023-05-08T08:42:07;14.60;;;9.67;;
801;SDS011;383;48.766;9.270;2023-05-08T08:44:34;19.23;;;13.87;;
801;SDS011;383;48.766;9.270;2023-05-08T08:47:01;15.80;;;10.50;;
801;SDS011;383;48.766;9.270;2023-05-08T08:49:30;18.50;;;12.83;;
801;SDS011;383;48.766;9.270;2023-05-08T08:52:01;19.40;;;12.93;;
801;SDS011;383;48.766;9.270;2023-05-08T08:54:32;15.10;;;9.80;;
801;SDS011;383;48.766;9.270;2023-05-08T08:57:00;16.77;;;10.83;;
801;SDS011;383;48.766;9.270;2023-05-08T08:59:33;22.33;;;14.23;;
801;SDS011;383;48.766;9.270;2023-05-08T09:02:04;27.53;;;13.83;;
801;SDS011;383;48.766;9.270;2023-05-08T09:04:34;23.70;;;13.63;;
801;SDS011;383;48.766;9.270;2023-05-08T09:07:00;25.60;;;15.07;;
801;SDS011;383;48.766;9.270;2023-05-08T09:09:29;18.20;;;11.70;;
801;SDS011;383;48.766;9.270;2023-05-08T09:11:57;25.47;;;14.53;;
801;SDS011;383;48.766;9.270;2023-05-08T09:14:24;26.77;;;11.90;;
801;SDS011;383;48.766;9.270;2023-05-08T09:16:53;24.67;;;14.50;;
801;SDS011;383;48.766;9.270;2023-05-08T09:19:20;19.23;;;13.03;;
801;SDS011;383;48.766;9.270;2023-05-08T09:21:48;27.27;;;15.73;;
801;SDS011;383;48.766;9.270;2023-05-08T09:24:14;23.63;;;14.10;;
801;SDS011;383;48.766;9.270;2023-05-08T09:26:41;17.37;;;12.10;;
801;SDS011;383;48.766;9.270;2023-05-08T09:29:08;20.07;;;12.77;;
801;SDS011;383;48.766;9.270;2023-05-08T09:31:37;28.60;;;12.30;;
801;SDS011;383;48.766;9.270;2023-05-08T09:34:06;18.67;;;12.20;;
801;SDS011;383;48.766;9.270;2023-05-08T09:36:33;23.17;;;12.20;;
801;SDS011;383;48.766;9.270;2023-05-08T09:39:00;17.03;;;11.27;;
801;SDS011;383;48.766;9.270;2023-05-08T09:41:27;19.93;;;13.67;;
801;SDS011;383;48.766;9.270;2023-05-08T09:44:00;21.80;;;12.37;;
801;SDS011;383;48.766;9.270;2023-05-08T09:46:28;16.47;;;11.47;;
801;SDS011;383;48.766;9.270;2023-05-08T09:48:57;18.40;;;11.40;;
801;SDS011;383;48.766;9.270;2023-05-08T09:51:27;22.70;;;13.40;;
801;SDS011;383;48.766;9.270;2023-05-08T09:53:55;16.30;;;10.40;;
801;SDS011;383;48.766;9.270;2023-05-08T09:56:27;18.83;;;11.93;;
801;SDS011;383;48.766;9.270;2023-05-08T09:59:04;17.90;;;12.10;;
801;SDS011;383;48.766;9.270;2023-05-08T10:01:46;18.50;;;13.07;;
801;SDS011;383;48.766;9.270;2023-05-08T10:04:13;19.23;;;11.37;;
801;SDS011;383;48.766;9.270;2023-05-08T10:06:41;20.63;;;11.87;;
801;SDS011;383;48.766;9.270;2023-05-08T10:09:11;16.63;;;10.87;;
801;SDS011;383;48.766;9.270;2023-05-08T10:11:40;20.43;;;12.10;;
801;SDS011;383;48.766;9.270;2023-05-08T10:14:07;17.90;;;11.37;;
801;SDS011;383;48.766;9.270;2023-05-08T10:16:36;16.67;;;10.90;;
801;SDS011;383;48.766;9.270;2023-05-08T10:19:08;23.47;;;14.20;;
801;SDS011;383;48.766;9.270;2023-05-08T10:21:39;22.27;;;14.17;;
801;SDS011;383;48.766;9.270;2023-05-08T10:24:12;19.30;;;13.03;;
801;SDS011;383;48.766;9.270;2023-05-08T10:26:41;16.97;;;12.40;;
801;SDS011;383;48.766;9.270;2023-05-08T10:29:12;19.80;;;12.17;;
801;SDS011;383;48.766;9.270;2023-05-08T10:31:43;21.00;;;13.53;;
801;SDS011;383;48.766;9.270;2023-05-08T10:34:13;25.10;;;13.10;;
801;SDS011;383;48.766;9.270;2023-05-08T10:36:46;23.20;;;13.07;;
801;SDS011;383;48.766;9.270;2023-05-08T10:39:13;19.43;;;12.40;;
801;SDS011;383;48.766;9.270;2023-05-08T10:41:41;19.27;;;12.23;;
801;SDS011;383;48.766;9.270;2023-05-08T10:44:08;20.20;;;11.60;;
801;SDS011;383;48.766;9.270;2023-05-08T10:46:36;23.90;;;13.60;;
801;SDS011;383;48.766;9.270;2023-05-08T10:49:08;19.43;;;13.40;;
801;SDS011;383;48.766;9.270;2023-05-08T10:51:43;19.90;;;11.43;;
801;SDS011;383;48.766;9.270;2023-05-08T10:54:20;18.07;;;10.87;;
801;SDS011;383;48.766;9.270;2023-05-08T10:57:01;17.50;;;11.03;;
801;SDS011;383;48.766;9.270;2023-05-08T10:59:33;23.90;;;13.07;;
801;SDS011;383;48.766;9.270;2023-05-08T11:02:02;19.70;;;12.03;;
801;SDS011;383;48.766;9.270;2023-05-08T11:04:30;16.77;;;10.93;;
801;SDS011;383;48.766;9.270;2023-05-08T11:06:58;18.30;;;10.50;;
801;SDS011;383;48.766;9.270;2023-05-08T11:09:26;17.10;;;12.20;;
801;SDS011;383;48.766;9.270;2023-05-08T11:11:58;19.70;;;13.00;;
801;SDS011;383;48.766;9.270;2023-05-08T11:14:30;18.50;;;11.50;;
801;SDS011;383;48.766;9.270;2023-05-08T11:17:03;19.20;;;12.20;;
801;SDS011;383;48.766;9.270;2023-05-08T11:19:30;23.83;;;11.73;;
801;SDS011;383;48.766;9.270;2023-05-08T11:24:52;20.00;;;11.20;;
801;SDS011;383;48.766;9.270;2023-05-08T11:27:30;15.37;;;10.50;;
801;SDS011;383;48.766;9.270;2023-05-08T11:32:56;20.57;;;12.00;;
801;SDS011;383;48.766;9.270;2023-05-08T11:35:40;17.60;;;11.23;;
801;SDS011;383;48.766;9.270;2023-05-08T11:38:19;19.80;;;12.30;;
801;SDS011;383;48.766;9.270;2023-05-08T11:40:49;19.50;;;11.47;;
801;SDS011;383;48.766;9.270;2023-05-08T11:46:38;20.27;;;13.20;;
801;SDS011;383;48.766;9.270;2023-05-08T11:49:09;21.50;;;11.67;;
801;SDS011;383;48.766;9.270;2023-05-08T11:51:38;20.53;;;13.17;;
801;SDS011;383;48.766;9.270;2023-05-08T11:54:10;22.00;;;12.77;;
801;SDS011;383;48.766;9.270;2023-05-08T11:56:41;18.20;;;12.10;;
801;SDS011;383;48.766;9.270;2023-05-08T11:59:08;17.60;;;11.40;;
801;SDS011;383;48.766;9.270;2023-05-08T12:01:41;17.13;;;11.60;;
801;SDS011;383;48.766;9.270;2023-05-08T12:04:08;21.00;;;12.37;;
801;SDS011;383;48.766;9.270;2023-05-08T12:06:36;22.27;;;13.20;;
801;SDS011;383;48.766;9.270;2023-05-08T12:09:11;23.53;;;13.50;;
801;SDS011;383;48.766;9.270;2023-05-08T12:11:38;19.97;;;12.77;;
801;SDS011;383;48.766;9.270;2023-05-08T12:14:07;21.70;;;13.43;;
801;SDS011;383;48.766;9.270;2023-05-08T12:16:35;21.80;;;13.73;;
801;SDS011;383;48.766;9.270;2023-05-08T12:19:02;23.60;;;13.67;;
801;SDS011;383;48.766;9.270;2023-05-08T12:21:30;19.23;;;12.47;;
801;SDS011;383;48.766;9.270;2023-05-08T12:23:56;19.70;;;13.00;;
801;SDS011;383;48.766;9.270;2023-05-08T12:26:25;15.80;;;11.50;;
801;SDS011;383;48.766;9.270;2023-05-08T12:28:55;18.47;;;12.30;;
801;SDS011;383;48.766;9.270;2023-05-08T12:31:22;20.77;;;13.37;;
801;SDS011;383;48.766;9.270;2023-05-08T12:33:49;19.23;;;11.37;;
801;SDS011;383;48.766;9.270;2023-05-08T12:36:16;14.60;;;10.93;;
801;SDS011;383;48.766;9.270;2023-05-08T12:38:42;17.73;;;12.23;;
801;SDS011;383;48.766;9.270;2023-05-08T12:41:09;16.70;;;11.97;;
801;SDS011;383;48.766;9.270;2023-05-08T12:43:37;14.93;;;11.03;;
801;SDS011;383;48.766;9.270;2023-05-08T12:46:04;16.43;;;12.10;;
801;SDS011;383;48.766;9.270;2023-05-08T12:48:36;16.10;;;10.67;;
801;SDS011;383;48.766;9.270;2023-05-08T12:51:03;15.17;;;11.10;;
801;SDS011;383;48.766;9.270;2023-05-08T12:53:31;17.47;;;11.30;;
801;SDS011;383;48.766;9.270;2023-05-08T12:55:59;22.67;;;11.63;;
801;SDS011;383;48.766;9.270;2023-05-08T12:58:28;17.37;;;10.60;;
801;SDS011;383;48.766;9.270;2023-05-08T13:01:04;18.47;;;12.30;;
801;SDS011;383;48.766;9.270;2023-05-08T13:03:37;18.60;;;12.20;;
801;SDS011;383;48.766;9.270;2023-05-08T13:06:17;17.80;;;11.13;;
801;SDS011;383;48.766;9.270;2023-05-08T13:08:51;14.00;;;10.60;;
801;SDS011;383;48.766;9.270;2023-05-08T13:11:26;18.30;;;11.03;;
801;SDS011;383;48.766;9.270;2023-05-08T13:13:53;16.40;;;10.30;;
801;SDS011;383;48.766;9.270;2023-05-08T13:16:21;16.80;;;11.70;;
801;SDS011;383;48.766;9.270;2023-05-08T13:18:48;14.50;;;9.87;;
801;SDS011;383;48.766;9.270;2023-05-08T13:21:15;13.60;;;10.40;;
801;SDS011;383;48.766;9.270;2023-05-08T13:23:41;16.00;;;11.93;;
801;SDS011;383;48.766;9.270;2023-05-08T13:26:08;15.30;;;10.97;;
801;SDS011;383;48.766;9.270;2023-05-08T13:28:35;16.50;;;11.13;;
801;SDS011;383;48.766;9.270;2023-05-08T13:31:01;15.97;;;11.07;;
801;SDS011;383;48.766;9.270;2023-05-08T13:33:29;17.43;;;11.30;;
801;SDS011;383;48.766;9.270;2023-05-08T13:35:56;15.87;;;10.70;;
801;SDS011;383;48.766;9.270;2023-05-08T13:38:23;14.53;;;10.70;;
801;SDS011;383;48.766;9.270;2023-05-08T13:40:49;17.60;;;10.90;;
801;SDS011;383;48.766;9.270;2023-05-08T13:43:16;22.13;;;11.90;;
801;SDS011;383;48.766;9.270;2023-05-08T13:45:43;16.90;;;11.50;;
801;SDS011;383;48.766;9.270;2023-05-08T13:48:09;13.77;;;10.73;;
801;SDS011;383;48.766;9.270;2023-05-08T13:50:37;16.37;;;10.63;;
801;SDS011;383;48.766;9.270;2023-05-08T13:53:04;18.63;;;12.20;;
801;SDS011;383;48.766;9.270;2023-05-08T13:55:31;15.43;;;11.60;;
801;SDS011;383;48.766;9.270;2023-05-08T13:57:57;17.10;;;10.77;;
801;SDS011;383;48.766;9.270;2023-05-08T14:00:24;13.27;;;9.80;;
801;SDS011;383;48.766;9.270;2023-05-08T14:02:51;12.03;;;9.40;;
801;SDS011;383;48.766;9.270;2023-05-08T14:05:18;15.23;;;11.07;;
801;SDS011;383;48.766;9.270;2023-05-08T14:07:46;13.80;;;9.50;;
801;SDS011;383;48.766;9.270;2023-05-08T14:10:13;16.30;;;11.83;;
801;SDS011;383;48.766;9.270;2023-05-08T14:12:41;14.50;;;11.20;;
801;SDS011;383;48.766;9.270;2023-05-08T14:15:07;15.23;;;10.73;;
801;SDS011;383;48.766;9.270;2023-05-08T14:17:35;21.70;;;10.90;;
801;SDS011;383;48.766;9.270;2023-05-08T14:20:02;17.87;;;11.43;;
801;SDS011;383;48.766;9.270;2023-05-08T14:22:29;18.50;;;12.10;;
801;SDS011;383;48.766;9.270;2023-05-08T14:24:57;13.50;;;9.43;;
801;SDS011;383;48.766;9.270;2023-05-08T14:27:24;20.33;;;11.67;;
801;SDS011;383;48.766;9.270;2023-05-08T14:29:50;21.10;;;11.10;;
801;SDS011;383;48.766;9.270;2023-05-08T14:32:19;13.63;;;9.43;;
801;SDS011;383;48.766;9.270;2023-05-08T14:34:46;13.50;;;10.13;;
801;SDS011;383;48.766;9.270;2023-05-08T14:37:13;16.83;;;11.90;;
801;SDS011;383;48.766;9.270;2023-05-08T14:39:41;20.33;;;11.97;;
801;SDS011;383;48.766;9.270;2023-05-08T14:42:10;16.10;;;11.57;;
801;SDS011;383;48.766;9.270;2023-05-08T14:44:37;17.37;;;11.20;;
801;SDS011;383;48.766;9.270;2023-05-08T14:47:03;14.43;;;9.70;;
801;SDS011;383;48.766;9.270;2023-05-08T14:49:30;19.60;;;10.57;;
801;SDS011;383;48.766;9.270;2023-05-08T14:51:57;13.33;;;9.07;;
801;SDS011;383;48.766;9.270;2023-05-08T14:54:23;17.10;;;10.67;;
801;SDS011;383;48.766;9.270;2023-05-08T14:56:50;17.17;;;10.43;;
801;SDS011;383;48.766;9.270;2023-05-08T14:59:18;20.40;;;12.20;;
801;SDS011;383;48.766;9.270;2023-05-08T15:01:45;19.27;;;13.00;;
801;SDS011;383;48.766;9.270;2023-05-08T15:04:12;19.13;;;10.40;;
801;SDS011;383;48.766;9.270;2023-05-08T15:06:38;19.73;;;11.43;;
801;SDS011;383;48.766;9.270;2023-05-08T15:09:06;15.27;;;11.00;;
801;SDS011;383;48.766;9.270;2023-05-08T15:11:33;15.03;;;9.90;;
801;SDS011;383;48.766;9.270;2023-05-08T15:14:00;22.77;;;10.87;;
801;SDS011;383;48.766;9.270;2023-05-08T15:16:28;14.77;;;9.77;;
801;SDS011;383;48.766;9.270;2023-05-08T15:18:55;17.30;;;11.80;;
801;SDS011;383;48.766;9.270;2023-05-08T15:21:22;18.03;;;10.97;;
801;SDS011;383;48.766;9.270;2023-05-08T15:23:50;16.27;;;10.80;;
801;SDS011;383;48.766;9.270;2023-05-08T15:26:17;15.77;;;10.50;;
801;SDS011;383;48.766;9.270;2023-05-08T15:28:44;14.87;;;9.57;;
801;SDS011;383;48.766;9.270;2023-05-08T15:31:11;13.60;;;10.30;;
801;SDS011;383;48.766;9.270;2023-05-08T15:33:39;13.30;;;9.57;;
801;SDS011;383;48.766;9.270;2023-05-08T15:36:08;15.57;;;10.43;;
801;SDS011;383;48.766;9.270;2023-05-08T15:38:35;16.67;;;12.10;;
801;SDS011;383;48.766;9.270;2023-05-08T15:41:03;13.70;;;10.17;;
801;SDS011;383;48.766;9.270;2023-05-08T15:43:30;19.60;;;11.27;;
801;SDS011;383;48.766;9.270;2023-05-08T15:45:57;17.67;;;11.40;;